createdAt,value
2022-09-17T00:00:02.361Z,957.28
2022-09-17T00:01:02.387Z,957.30
2022-09-17T00:02:02.437Z,957.26
2022-09-17T00:03:02.471Z,957.29
2022-09-17T00:04:02.374Z,957.26
2022-09-17T00:05:02.318Z,957.27
2022-09-17T00:06:02.299Z,957.28
2022-09-17T00:07:02.334Z,957.27
2022-09-17T00:08:03.615Z,957.28
2022-09-17T00:09:02.284Z,957.29
2022-09-17T00:10:02.291Z,957.30
2022-09-17T00:11:02.240Z,957.33
2022-09-17T00:12:02.256Z,957.28
2022-09-17T00:13:02.231Z,957.32
2022-09-17T00:14:02.219Z,957.28
2022-09-17T00:15:02.198Z,957.33
2022-09-17T00:16:02.269Z,957.30
2022-09-17T00:17:02.234Z,957.31
2022-09-17T00:18:02.171Z,957.27
2022-09-17T00:19:02.207Z,957.29
2022-09-17T00:20:02.160Z,957.28
2022-09-17T00:21:02.152Z,957.26
2022-09-17T00:22:02.122Z,957.29
2022-09-17T00:23:02.126Z,957.29
2022-09-17T00:24:03.755Z,957.27
2022-09-17T00:25:02.109Z,957.32
2022-09-17T00:26:02.067Z,957.25
2022-09-17T00:27:02.071Z,957.30
2022-09-17T00:28:02.081Z,957.29
2022-09-17T00:29:02.090Z,957.32
2022-09-17T00:30:02.174Z,957.35
2022-09-17T00:31:02.117Z,957.32
2022-09-17T00:32:02.008Z,957.33
2022-09-17T00:33:02.004Z,957.33
2022-09-17T00:34:02.094Z,957.34
2022-09-17T00:35:02.009Z,957.34
2022-09-17T00:36:02.034Z,957.32
2022-09-17T00:37:01.967Z,957.36
2022-09-17T00:38:01.962Z,957.32
2022-09-17T00:39:01.925Z,957.33
2022-09-17T00:40:02.033Z,957.36
2022-09-17T00:41:01.933Z,957.33
2022-09-17T00:42:01.889Z,957.34
2022-09-17T00:43:01.909Z,957.32
2022-09-17T00:44:01.885Z,957.35
2022-09-17T00:45:01.891Z,957.32
2022-09-17T00:46:01.878Z,957.35
2022-09-17T00:47:03.201Z,957.37
2022-09-17T00:48:01.826Z,957.36
2022-09-17T00:49:01.842Z,957.39
2022-09-17T00:50:01.815Z,957.32
2022-09-17T00:51:01.830Z,957.35
2022-09-17T00:52:01.822Z,957.37
2022-09-17T00:53:01.788Z,957.36
2022-09-17T00:54:01.754Z,957.36
2022-09-17T00:55:02.959Z,957.43
2022-09-17T00:56:01.739Z,957.39
2022-09-17T00:57:01.761Z,957.37
2022-09-17T00:58:01.770Z,957.40
2022-09-17T00:59:01.847Z,957.37
2022-09-17T01:00:02.311Z,957.35
2022-09-17T01:01:01.796Z,957.41
2022-09-17T01:02:01.778Z,957.39
2022-09-17T01:03:01.689Z,957.38
2022-09-17T01:04:01.654Z,957.37
2022-09-17T01:05:01.644Z,957.45
2022-09-17T01:06:01.620Z,957.42
2022-09-17T01:07:01.619Z,957.39
2022-09-17T01:08:02.473Z,957.40
2022-09-17T01:09:01.617Z,957.38
2022-09-17T01:10:01.680Z,957.41
2022-09-17T01:11:01.582Z,957.30
2022-09-17T01:12:01.579Z,957.35
2022-09-17T01:13:01.567Z,957.38
2022-09-17T01:14:01.567Z,957.39
2022-09-17T01:15:01.541Z,957.34
2022-09-17T01:16:01.641Z,957.41
2022-09-17T01:17:01.559Z,957.42
2022-09-17T01:18:01.490Z,957.43
2022-09-17T01:19:01.492Z,957.42
2022-09-17T01:20:01.540Z,957.37
2022-09-17T01:21:01.453Z,957.39
2022-09-17T01:22:01.479Z,957.36
2022-09-17T01:23:01.684Z,957.35
2022-09-17T01:24:01.435Z,957.39
2022-09-17T01:25:01.439Z,957.34
2022-09-17T01:26:01.606Z,957.37
2022-09-17T01:27:01.532Z,957.34
2022-09-17T01:28:01.488Z,957.40
2022-09-17T01:29:01.435Z,957.39
2022-09-17T01:30:01.417Z,957.38
2022-09-17T01:31:01.604Z,957.43
2022-09-17T01:32:01.344Z,957.42
2022-09-17T01:33:01.331Z,957.41
2022-09-17T01:34:01.331Z,957.45
2022-09-17T01:35:02.095Z,957.40
2022-09-17T01:36:01.315Z,957.45
2022-09-17T01:37:01.283Z,957.42
2022-09-17T01:38:01.281Z,957.44
2022-09-17T01:39:01.259Z,957.45
2022-09-17T01:40:01.357Z,957.42
2022-09-17T01:41:01.256Z,957.42
2022-09-17T01:42:01.231Z,957.44
2022-09-17T01:43:01.219Z,957.47
2022-09-17T01:44:01.468Z,957.43
2022-09-17T01:45:01.194Z,957.48
2022-09-17T01:46:01.193Z,957.48
2022-09-17T01:47:01.171Z,957.43
2022-09-17T01:48:01.167Z,957.46
2022-09-17T01:49:01.176Z,957.49
2022-09-17T01:50:01.136Z,957.44
2022-09-17T01:51:01.120Z,957.42
2022-09-17T01:52:01.130Z,957.47
2022-09-17T01:53:01.126Z,957.44
2022-09-17T01:54:01.220Z,957.48
2022-09-17T01:55:01.089Z,957.41
2022-09-17T01:56:01.077Z,957.48
2022-09-17T01:57:01.074Z,957.43
2022-09-17T01:58:01.046Z,957.44
2022-09-17T01:59:01.048Z,957.47
2022-09-17T02:00:01.043Z,957.38
2022-09-17T02:01:01.096Z,957.45
2022-09-17T02:02:01.120Z,957.44
2022-09-17T02:03:00.987Z,957.54
2022-09-17T02:04:01.022Z,957.47
2022-09-17T02:05:01.661Z,957.49
2022-09-17T02:06:00.983Z,957.48
2022-09-17T02:07:00.967Z,957.46
2022-09-17T02:08:00.931Z,957.53
2022-09-17T02:09:00.924Z,957.51
2022-09-17T02:10:00.934Z,957.49
2022-09-17T02:11:00.895Z,957.49
2022-09-17T02:12:00.887Z,957.49
2022-09-17T02:13:00.895Z,957.51
2022-09-17T02:14:04.333Z,957.47
2022-09-17T02:15:00.864Z,957.49
2022-09-17T02:16:00.915Z,957.46
2022-09-17T02:17:00.840Z,957.46
2022-09-17T02:18:00.825Z,957.46
2022-09-17T02:19:00.838Z,957.45
2022-09-17T02:20:00.834Z,957.46
2022-09-17T02:21:00.799Z,957.47
2022-09-17T02:22:00.807Z,957.45
2022-09-17T02:23:00.791Z,957.44
2022-09-17T02:24:00.759Z,957.40
2022-09-17T02:25:00.799Z,957.46
2022-09-17T02:26:00.751Z,957.39
2022-09-17T02:27:00.738Z,957.43
2022-09-17T02:28:03.221Z,957.43
2022-09-17T02:29:00.704Z,957.50
2022-09-17T02:30:00.720Z,957.47
2022-09-17T02:31:00.752Z,957.47
2022-09-17T02:32:00.691Z,957.45
2022-09-17T02:33:00.652Z,957.44
2022-09-17T02:34:00.779Z,957.49
2022-09-17T02:35:00.643Z,957.41
2022-09-17T02:36:00.634Z,957.41
2022-09-17T02:37:00.662Z,957.39
2022-09-17T02:38:00.607Z,957.35
2022-09-17T02:39:00.605Z,957.37
2022-09-17T02:40:00.683Z,957.35
2022-09-17T02:41:00.570Z,957.34
2022-09-17T02:42:00.559Z,957.29
2022-09-17T02:43:00.573Z,957.29
2022-09-17T02:44:00.605Z,957.36
2022-09-17T02:45:00.538Z,957.28
2022-09-17T02:46:00.501Z,957.34
2022-09-17T02:47:00.510Z,957.33
2022-09-17T02:48:00.577Z,957.33
2022-09-17T02:49:00.483Z,957.32
2022-09-17T02:50:00.498Z,957.34
2022-09-17T02:51:00.448Z,957.38
2022-09-17T02:52:00.456Z,957.37
2022-09-17T02:53:00.463Z,957.41
2022-09-17T02:54:00.447Z,957.43
2022-09-17T02:55:00.419Z,957.41
2022-09-17T02:56:00.429Z,957.40
2022-09-17T02:57:00.374Z,957.43
2022-09-17T02:58:00.391Z,957.47
2022-09-17T02:59:00.368Z,957.47
2022-09-17T03:00:00.361Z,957.50
2022-09-17T03:01:00.443Z,957.45
2022-09-17T03:02:00.415Z,957.51
2022-09-17T03:03:00.314Z,957.49
2022-09-17T03:04:00.322Z,957.57
2022-09-17T03:05:00.287Z,957.53
2022-09-17T03:06:00.285Z,957.52
2022-09-17T03:07:00.282Z,957.51
2022-09-17T03:08:00.267Z,957.52
2022-09-17T03:09:00.271Z,957.52
2022-09-17T03:10:00.257Z,957.55
2022-09-17T03:11:00.317Z,957.52
2022-09-17T03:12:00.211Z,957.53
2022-09-17T03:13:00.210Z,957.55
2022-09-17T03:14:00.243Z,957.53
2022-09-17T03:15:00.208Z,957.53
2022-09-17T03:16:00.261Z,957.55
2022-09-17T03:17:00.158Z,957.54
2022-09-17T03:18:00.148Z,957.50
2022-09-17T03:19:00.154Z,957.53
2022-09-17T03:20:00.144Z,957.52
2022-09-17T03:21:00.112Z,957.46
2022-09-17T03:22:00.122Z,957.49
2022-09-17T03:23:00.168Z,957.47
2022-09-17T03:24:00.096Z,957.50
2022-09-17T03:25:00.096Z,957.49
2022-09-17T03:26:00.063Z,957.51
2022-09-17T03:27:00.047Z,957.46
2022-09-17T03:28:00.052Z,957.52
2022-09-17T03:29:00.095Z,957.51
2022-09-17T03:30:00.033Z,957.53
2022-09-17T03:31:00.065Z,957.51
2022-09-17T03:32:00.033Z,957.54
2022-09-17T03:32:59.990Z,957.52
2022-09-17T03:33:59.987Z,957.56
2022-09-17T03:34:59.959Z,957.54
2022-09-17T03:35:59.940Z,957.56
2022-09-17T03:36:59.935Z,957.53
2022-09-17T03:37:59.929Z,957.53
2022-09-17T03:38:59.935Z,957.50
2022-09-17T03:39:59.973Z,957.49
2022-09-17T03:40:59.900Z,957.51
2022-09-17T03:41:59.873Z,957.51
2022-09-17T03:42:59.887Z,957.51
2022-09-17T03:43:59.882Z,957.50
2022-09-17T03:44:59.859Z,957.52
2022-09-17T03:45:59.907Z,957.49
2022-09-17T03:46:59.840Z,957.51
2022-09-17T03:47:59.824Z,957.56
2022-09-17T03:48:59.847Z,957.53
2022-09-17T03:49:59.799Z,957.46
2022-09-17T03:50:59.804Z,957.49
2022-09-17T03:51:59.782Z,957.52
2022-09-17T03:52:59.799Z,957.49
2022-09-17T03:53:59.801Z,957.48
2022-09-17T03:54:59.778Z,957.48
2022-09-17T03:55:59.731Z,957.54
2022-09-17T03:56:59.726Z,957.51
2022-09-17T03:58:00.427Z,957.50
2022-09-17T03:58:59.728Z,957.56
2022-09-17T03:59:59.688Z,957.54
2022-09-17T04:00:59.678Z,957.54
2022-09-17T04:01:59.788Z,957.50
2022-09-17T04:02:59.667Z,957.57
2022-09-17T04:03:59.861Z,957.56
2022-09-17T04:04:59.611Z,957.58
2022-09-17T04:05:59.626Z,957.60
2022-09-17T04:06:59.613Z,957.59
2022-09-17T04:07:59.628Z,957.64
2022-09-17T04:08:59.598Z,957.62
2022-09-17T04:09:59.588Z,957.64
2022-09-17T04:10:59.558Z,957.66
2022-09-17T04:11:59.556Z,957.65
2022-09-17T04:12:59.529Z,957.63
2022-09-17T04:13:59.546Z,957.62
2022-09-17T04:14:59.512Z,957.72
2022-09-17T04:15:59.563Z,957.68
2022-09-17T04:16:59.794Z,957.70
2022-09-17T04:17:59.545Z,957.65
2022-09-17T04:18:59.631Z,957.68
2022-09-17T04:19:59.468Z,957.70
2022-09-17T04:20:59.495Z,957.77
2022-09-17T04:21:59.443Z,957.72
2022-09-17T04:22:59.430Z,957.69
2022-09-17T04:23:59.416Z,957.68
2022-09-17T04:24:59.397Z,957.68
2022-09-17T04:25:59.403Z,957.66
2022-09-17T04:26:59.421Z,957.67
2022-09-17T04:27:59.358Z,957.67
2022-09-17T04:28:59.363Z,957.68
2022-09-17T04:29:59.357Z,957.71
2022-09-17T04:30:59.421Z,957.76
2022-09-17T04:31:59.356Z,957.73
2022-09-17T04:32:59.313Z,957.76
2022-09-17T04:33:59.316Z,957.77
2022-09-17T04:34:59.295Z,957.75
2022-09-17T04:35:59.271Z,957.74
2022-09-17T04:36:59.294Z,957.73
2022-09-17T04:37:59.253Z,957.76
2022-09-17T04:38:59.234Z,957.79
2022-09-17T04:39:59.287Z,957.80
2022-09-17T04:40:59.240Z,957.76
2022-09-17T04:41:59.242Z,957.78
2022-09-17T04:42:59.207Z,957.78
2022-09-17T04:43:59.179Z,957.77
2022-09-17T04:44:59.188Z,957.80
2022-09-17T04:45:59.171Z,957.70
2022-09-17T04:46:59.333Z,957.76
2022-09-17T04:47:59.166Z,957.74
2022-09-17T04:48:59.201Z,957.80
2022-09-17T04:49:59.129Z,957.80
2022-09-17T04:50:59.109Z,957.77
2022-09-17T04:51:59.103Z,957.79
2022-09-17T04:52:59.146Z,957.77
2022-09-17T04:53:59.072Z,957.76
2022-09-17T04:54:59.073Z,957.79
2022-09-17T04:55:59.049Z,957.78
2022-09-17T04:56:59.040Z,957.79
2022-09-17T04:57:59.031Z,957.73
2022-09-17T04:58:59.034Z,957.79
2022-09-17T04:59:59.033Z,957.79
2022-09-17T05:00:59.016Z,957.79
2022-09-17T05:01:59.073Z,957.82
2022-09-17T05:02:58.977Z,957.78
2022-09-17T05:03:59.071Z,957.81
2022-09-17T05:04:58.945Z,957.75
2022-09-17T05:05:58.950Z,957.77
2022-09-17T05:06:58.930Z,957.78
2022-09-17T05:07:58.931Z,957.79
2022-09-17T05:08:59.072Z,957.78
2022-09-17T05:09:58.902Z,957.76
2022-09-17T05:10:58.876Z,957.76
2022-09-17T05:11:58.877Z,957.77
2022-09-17T05:12:58.852Z,957.77
2022-09-17T05:13:58.862Z,957.75
2022-09-17T05:14:58.870Z,957.80
2022-09-17T05:15:58.880Z,957.81
2022-09-17T05:16:58.829Z,957.78
2022-09-17T05:17:58.827Z,957.79
2022-09-17T05:18:58.895Z,957.82
2022-09-17T05:19:58.831Z,957.84
2022-09-17T05:20:58.794Z,957.89
2022-09-17T05:21:58.773Z,957.84
2022-09-17T05:22:58.812Z,957.83
2022-09-17T05:23:58.819Z,957.85
2022-09-17T05:24:58.759Z,957.84
2022-09-17T05:25:58.718Z,957.90
2022-09-17T05:26:58.710Z,957.92
2022-09-17T05:27:58.727Z,957.88
2022-09-17T05:28:58.792Z,957.92
2022-09-17T05:29:58.681Z,957.95
2022-09-17T05:30:58.731Z,957.97
2022-09-17T05:31:58.665Z,957.95
2022-09-17T05:32:58.665Z,957.94
2022-09-17T05:33:58.640Z,957.95
2022-09-17T05:35:00.687Z,957.93
2022-09-17T05:35:58.636Z,957.95
2022-09-17T05:36:58.594Z,957.93
2022-09-17T05:37:58.617Z,957.99
2022-09-17T05:38:58.573Z,957.94
2022-09-17T05:39:58.578Z,957.97
2022-09-17T05:40:58.550Z,957.95
2022-09-17T05:41:58.527Z,957.95
2022-09-17T05:42:58.524Z,958.00
2022-09-17T05:43:58.584Z,958.02
2022-09-17T05:44:58.526Z,958.01
2022-09-17T05:45:58.505Z,957.99
2022-09-17T05:46:59.389Z,957.99
2022-09-17T05:47:58.527Z,958.06
2022-09-17T05:48:58.472Z,958.06
2022-09-17T05:49:58.460Z,958.02
2022-09-17T05:50:58.453Z,958.03
2022-09-17T05:51:58.431Z,958.00
2022-09-17T05:52:58.414Z,958.00
2022-09-17T05:53:58.444Z,958.01
2022-09-17T05:54:58.419Z,957.95
2022-09-17T05:55:58.382Z,958.00
2022-09-17T05:56:58.374Z,957.98
2022-09-17T05:57:58.377Z,958.04
2022-09-17T05:58:58.490Z,958.05
2022-09-17T05:59:58.353Z,958.04
2022-09-17T06:00:58.348Z,957.97
2022-09-17T06:01:58.346Z,957.98
2022-09-17T06:02:58.417Z,957.99
2022-09-17T06:03:58.305Z,958.01
2022-09-17T06:04:58.301Z,958.03
2022-09-17T06:05:58.275Z,957.97
2022-09-17T06:06:58.283Z,957.97
2022-09-17T06:07:58.297Z,958.04
2022-09-17T06:08:58.334Z,957.99
2022-09-17T06:09:58.271Z,958.05
2022-09-17T06:11:02.365Z,958.06
2022-09-17T06:11:58.213Z,958.11
2022-09-17T06:12:58.212Z,958.03
2022-09-17T06:13:58.188Z,958.06
2022-09-17T06:14:58.176Z,958.09
2022-09-17T06:15:58.252Z,958.02
2022-09-17T06:16:58.147Z,958.08
2022-09-17T06:17:58.178Z,958.09
2022-09-17T06:18:58.138Z,958.07
2022-09-17T06:19:58.121Z,958.10
2022-09-17T06:20:58.107Z,958.05
2022-09-17T06:21:58.108Z,958.09
2022-09-17T06:22:58.092Z,958.10
2022-09-17T06:23:58.120Z,958.08
2022-09-17T06:24:58.125Z,958.01
2022-09-17T06:25:58.057Z,958.05
2022-09-17T06:26:58.046Z,958.08
2022-09-17T06:27:58.034Z,958.06
2022-09-17T06:28:58.074Z,958.03
2022-09-17T06:29:58.010Z,958.00
2022-09-17T06:30:58.052Z,957.99
2022-09-17T06:31:57.995Z,958.10
2022-09-17T06:32:58.002Z,958.03
2022-09-17T06:33:58.600Z,958.03
2022-09-17T06:34:57.956Z,958.07
2022-09-17T06:35:58.011Z,958.07
2022-09-17T06:36:57.935Z,958.08
2022-09-17T06:37:57.921Z,958.10
2022-09-17T06:38:57.910Z,958.07
2022-09-17T06:39:57.945Z,958.13
2022-09-17T06:40:58.981Z,958.12
2022-09-17T06:41:57.907Z,958.15
2022-09-17T06:42:57.857Z,958.09
2022-09-17T06:43:57.894Z,958.09
2022-09-17T06:44:59.765Z,958.07
2022-09-17T06:45:57.837Z,958.11
2022-09-17T06:46:57.894Z,958.09
2022-09-17T06:47:57.808Z,958.10
2022-09-17T06:48:57.798Z,958.09
2022-09-17T06:49:57.804Z,958.08
2022-09-17T06:50:57.780Z,958.09
2022-09-17T06:51:57.793Z,958.11
2022-09-17T06:52:57.746Z,958.11
2022-09-17T06:53:57.737Z,958.09
2022-09-17T06:54:57.724Z,958.14
2022-09-17T06:55:58.890Z,958.11
2022-09-17T06:56:57.718Z,958.05
2022-09-17T06:57:57.725Z,958.06
2022-09-17T06:58:57.741Z,958.09
2022-09-17T06:59:57.671Z,958.07
2022-09-17T07:00:57.696Z,958.12
2022-09-17T07:01:58.380Z,958.11
2022-09-17T07:02:57.632Z,958.10
2022-09-17T07:03:57.678Z,958.12
2022-09-17T07:04:57.614Z,958.09
2022-09-17T07:05:57.627Z,958.05
2022-09-17T07:06:57.597Z,958.11
2022-09-17T07:07:57.587Z,958.15
2022-09-17T07:08:57.582Z,958.19
2022-09-17T07:09:57.582Z,958.17
2022-09-17T07:10:57.561Z,958.17
2022-09-17T07:11:57.531Z,958.21
2022-09-17T07:12:57.653Z,958.23
2022-09-17T07:13:57.654Z,958.23
2022-09-17T07:14:57.522Z,958.27
2022-09-17T07:15:57.552Z,958.26
2022-09-17T07:16:57.484Z,958.23
2022-09-17T07:17:57.458Z,958.28
2022-09-17T07:18:57.448Z,958.29
2022-09-17T07:19:57.482Z,958.33
2022-09-17T07:20:57.419Z,958.22
2022-09-17T07:21:57.422Z,958.24
2022-09-17T07:22:57.439Z,958.27
2022-09-17T07:23:57.404Z,958.21
2022-09-17T07:24:57.387Z,958.23
2022-09-17T07:25:57.387Z,958.23
2022-09-17T07:26:57.432Z,958.24
2022-09-17T07:27:57.370Z,958.28
2022-09-17T07:28:57.460Z,958.23
2022-09-17T07:29:57.317Z,958.30
2022-09-17T07:30:57.407Z,958.15
2022-09-17T07:31:58.395Z,958.29
2022-09-17T07:32:57.299Z,958.26
2022-09-17T07:33:57.318Z,958.31
2022-09-17T07:34:57.291Z,958.25
2022-09-17T07:35:57.284Z,958.26
2022-09-17T07:36:57.245Z,958.23
2022-09-17T07:37:57.248Z,958.23
2022-09-17T07:38:57.235Z,958.17
2022-09-17T07:39:59.058Z,958.18
2022-09-17T07:40:57.232Z,958.22
2022-09-17T07:41:57.973Z,958.22
2022-09-17T07:42:57.243Z,958.22
2022-09-17T07:43:57.280Z,958.22
2022-09-17T07:45:01.288Z,958.19
2022-09-17T07:45:57.170Z,958.22
2022-09-17T07:46:57.931Z,958.23
2022-09-17T07:47:57.134Z,958.23
2022-09-17T07:48:57.143Z,958.22
2022-09-17T07:49:57.131Z,958.21
2022-09-17T07:50:57.127Z,958.19
2022-09-17T07:51:57.111Z,958.23
2022-09-17T07:52:57.079Z,958.26
2022-09-17T07:53:57.072Z,958.24
2022-09-17T07:54:57.058Z,958.24
2022-09-17T07:55:57.054Z,958.23
2022-09-17T07:56:57.066Z,958.20
2022-09-17T07:57:57.004Z,958.27
2022-09-17T07:58:57.033Z,958.22
2022-09-17T07:59:56.981Z,958.26
2022-09-17T08:00:57.094Z,958.22
2022-09-17T08:01:57.112Z,958.23
2022-09-17T08:02:57.101Z,958.25
2022-09-17T08:03:56.980Z,958.26
2022-09-17T08:04:56.941Z,958.23
2022-09-17T08:05:56.939Z,958.25
2022-09-17T08:06:56.935Z,958.28
2022-09-17T08:07:56.918Z,958.24
2022-09-17T08:08:56.903Z,958.28
2022-09-17T08:09:57.176Z,958.33
2022-09-17T08:10:56.869Z,958.22
2022-09-17T08:11:57.086Z,958.25
2022-09-17T08:12:56.883Z,958.29
2022-09-17T08:13:56.853Z,958.33
2022-09-17T08:14:56.904Z,958.37
2022-09-17T08:15:56.870Z,958.31
2022-09-17T08:16:56.801Z,958.33
2022-09-17T08:17:56.802Z,958.30
2022-09-17T08:18:56.779Z,958.34
2022-09-17T08:19:56.803Z,958.37
2022-09-17T08:20:56.743Z,958.34
2022-09-17T08:21:56.808Z,958.35
2022-09-17T08:22:56.753Z,958.34
2022-09-17T08:23:56.718Z,958.40
2022-09-17T08:24:56.789Z,958.36
2022-09-17T08:25:56.722Z,958.39
2022-09-17T08:26:56.694Z,958.38
2022-09-17T08:27:56.681Z,958.36
2022-09-17T08:28:56.675Z,958.43
2022-09-17T08:29:56.647Z,958.44
2022-09-17T08:30:56.714Z,958.45
2022-09-17T08:31:56.625Z,958.43
2022-09-17T08:32:56.599Z,958.43
2022-09-17T08:33:56.605Z,958.41
2022-09-17T08:34:58.306Z,958.44
2022-09-17T08:35:56.600Z,958.43
2022-09-17T08:36:57.365Z,958.39
2022-09-17T08:37:56.554Z,958.39
2022-09-17T08:38:56.922Z,958.38
2022-09-17T08:39:56.603Z,958.44
2022-09-17T08:40:56.543Z,958.40
2022-09-17T08:41:56.517Z,958.41
2022-09-17T08:42:56.489Z,958.44
2022-09-17T08:43:56.493Z,958.45
2022-09-17T08:45:00.487Z,958.37
2022-09-17T08:45:56.475Z,958.43
2022-09-17T08:46:56.530Z,958.40
2022-09-17T08:47:56.432Z,958.45
2022-09-17T08:48:56.450Z,958.39
2022-09-17T08:49:56.427Z,958.40
2022-09-17T08:51:01.752Z,958.42
2022-09-17T08:51:56.781Z,958.41
2022-09-17T08:52:56.542Z,958.40
2022-09-17T08:53:56.421Z,958.40
2022-09-17T08:54:56.367Z,958.39
2022-09-17T08:55:56.350Z,958.45
2022-09-17T08:56:56.416Z,958.36
2022-09-17T08:57:56.429Z,958.40
2022-09-17T08:58:56.326Z,958.37
2022-09-17T08:59:56.299Z,958.42
2022-09-17T09:00:57.083Z,958.30
2022-09-17T09:01:56.412Z,958.32
2022-09-17T09:02:56.401Z,958.39
2022-09-17T09:03:56.279Z,958.36
2022-09-17T09:04:56.332Z,958.40
2022-09-17T09:05:56.244Z,958.37
2022-09-17T09:06:56.227Z,958.37
2022-09-17T09:07:56.304Z,958.38
2022-09-17T09:08:56.252Z,958.38
2022-09-17T09:09:56.204Z,958.44
2022-09-17T09:10:56.273Z,958.44
2022-09-17T09:11:56.167Z,958.40
2022-09-17T09:12:56.153Z,958.45
2022-09-17T09:13:56.155Z,958.41
2022-09-17T09:14:56.132Z,958.45
2022-09-17T09:15:56.173Z,958.43
2022-09-17T09:16:56.166Z,958.50
2022-09-17T09:17:56.119Z,958.44
2022-09-17T09:18:56.122Z,958.42
2022-09-17T09:19:56.080Z,958.43
2022-09-17T09:20:56.070Z,958.41
2022-09-17T09:21:56.084Z,958.45
2022-09-17T09:22:56.048Z,958.48
2022-09-17T09:23:56.022Z,958.44
2022-09-17T09:24:56.077Z,958.50
2022-09-17T09:25:56.031Z,958.48
2022-09-17T09:26:58.662Z,958.48
2022-09-17T09:27:55.985Z,958.50
2022-09-17T09:28:55.983Z,958.49
2022-09-17T09:29:55.969Z,958.48
2022-09-17T09:30:56.013Z,958.52
2022-09-17T09:31:55.930Z,958.52
2022-09-17T09:32:56.765Z,958.49
2022-09-17T09:33:55.942Z,958.48
2022-09-17T09:34:55.938Z,958.45
2022-09-17T09:35:55.889Z,958.53
2022-09-17T09:36:55.887Z,958.53
2022-09-17T09:37:55.902Z,958.58
2022-09-17T09:38:55.860Z,958.54
2022-09-17T09:39:55.873Z,958.53
2022-09-17T09:40:55.830Z,958.50
2022-09-17T09:41:55.952Z,958.49
2022-09-17T09:42:55.836Z,958.50
2022-09-17T09:44:04.364Z,958.54
2022-09-17T09:44:56.525Z,958.57
2022-09-17T09:45:55.797Z,958.58
2022-09-17T09:46:55.800Z,958.52
2022-09-17T09:47:55.755Z,958.47
2022-09-17T09:48:55.758Z,958.53
2022-09-17T09:49:55.727Z,958.59
2022-09-17T09:51:06.144Z,958.58
2022-09-17T09:51:55.748Z,958.58
2022-09-17T09:52:55.752Z,958.59
2022-09-17T09:53:56.629Z,958.60
2022-09-17T09:54:55.672Z,958.51
2022-09-17T09:55:55.668Z,958.56
2022-09-17T09:56:55.646Z,958.53
2022-09-17T09:57:55.621Z,958.62
2022-09-17T09:58:55.645Z,958.57
2022-09-17T09:59:55.864Z,958.57
2022-09-17T10:00:55.642Z,958.60
2022-09-17T10:01:55.996Z,958.60
2022-09-17T10:02:55.658Z,958.58
2022-09-17T10:03:55.583Z,958.57
2022-09-17T10:04:55.579Z,958.59
2022-09-17T10:05:55.571Z,958.60
2022-09-17T10:06:56.302Z,958.59
2022-09-17T10:07:55.526Z,958.55
2022-09-17T10:08:55.509Z,958.56
2022-09-17T10:09:55.521Z,958.60
2022-09-17T10:10:55.704Z,958.55
2022-09-17T10:11:55.563Z,958.56
2022-09-17T10:12:55.460Z,958.54
2022-09-17T10:13:55.449Z,958.59
2022-09-17T10:14:55.498Z,958.54
2022-09-17T10:15:55.484Z,958.59
2022-09-17T10:16:55.424Z,958.59
2022-09-17T10:17:55.416Z,958.61
2022-09-17T10:18:55.404Z,958.63
2022-09-17T10:19:55.389Z,958.60
2022-09-17T10:20:55.404Z,958.64
2022-09-17T10:21:55.383Z,958.59
2022-09-17T10:22:55.397Z,958.58
2022-09-17T10:23:55.328Z,958.62
2022-09-17T10:24:55.326Z,958.57
2022-09-17T10:25:55.330Z,958.56
2022-09-17T10:26:56.080Z,958.57
2022-09-17T10:27:55.356Z,958.54
2022-09-17T10:28:55.281Z,958.52
2022-09-17T10:29:55.285Z,958.50
2022-09-17T10:30:56.176Z,958.55
2022-09-17T10:31:55.318Z,958.51
2022-09-17T10:32:55.284Z,958.54
2022-09-17T10:33:55.241Z,958.48
2022-09-17T10:34:55.225Z,958.55
2022-09-17T10:35:55.206Z,958.56
2022-09-17T10:36:55.186Z,958.53
2022-09-17T10:37:56.016Z,958.53
2022-09-17T10:38:55.480Z,958.51
2022-09-17T10:39:55.179Z,958.53
2022-09-17T10:40:55.158Z,958.52
2022-09-17T10:41:55.327Z,958.52
2022-09-17T10:42:55.107Z,958.50
2022-09-17T10:43:55.180Z,958.45
2022-09-17T10:44:55.110Z,958.49
2022-09-17T10:45:55.156Z,958.52
2022-09-17T10:46:55.144Z,958.48
2022-09-17T10:47:55.051Z,958.46
2022-09-17T10:48:55.045Z,958.45
2022-09-17T10:49:55.051Z,958.40
2022-09-17T10:50:55.029Z,958.40
2022-09-17T10:51:55.025Z,958.45
2022-09-17T10:52:55.003Z,958.39
2022-09-17T10:53:55.034Z,958.48
2022-09-17T10:54:54.973Z,958.45
2022-09-17T10:55:57.575Z,958.45
2022-09-17T10:56:54.967Z,958.45
2022-09-17T10:57:55.034Z,958.46
2022-09-17T10:58:54.928Z,958.41
2022-09-17T10:59:54.949Z,958.43
2022-09-17T11:00:55.151Z,958.45
2022-09-17T11:01:55.007Z,958.42
2022-09-17T11:02:54.973Z,958.39
2022-09-17T11:03:54.910Z,958.43
2022-09-17T11:04:55.053Z,958.40
2022-09-17T11:05:54.868Z,958.44
2022-09-17T11:06:56.516Z,958.43
2022-09-17T11:07:54.856Z,958.41
2022-09-17T11:08:55.190Z,958.41
2022-09-17T11:09:54.805Z,958.43
2022-09-17T11:10:54.935Z,958.49
2022-09-17T11:11:54.825Z,958.50
2022-09-17T11:12:54.782Z,958.53
2022-09-17T11:13:54.812Z,958.52
2022-09-17T11:14:55.609Z,958.49
2022-09-17T11:15:54.874Z,958.56
2022-09-17T11:16:55.214Z,958.49
2022-09-17T11:17:54.704Z,958.52
2022-09-17T11:18:54.719Z,958.52
2022-09-17T11:19:54.708Z,958.49
2022-09-17T11:20:54.685Z,958.50
2022-09-17T11:21:54.712Z,958.49
2022-09-17T11:22:54.659Z,958.45
2022-09-17T11:23:54.658Z,958.52
2022-09-17T11:24:54.665Z,958.46
2022-09-17T11:25:58.455Z,958.46
2022-09-17T11:26:54.652Z,958.51
2022-09-17T11:27:54.676Z,958.53
2022-09-17T11:28:54.607Z,958.48
2022-09-17T11:29:54.598Z,958.51
2022-09-17T11:30:54.596Z,958.51
2022-09-17T11:31:54.673Z,958.51
2022-09-17T11:32:54.564Z,958.53
2022-09-17T11:33:54.677Z,958.50
2022-09-17T11:34:54.581Z,958.49
2022-09-17T11:35:54.547Z,958.50
2022-09-17T11:36:54.513Z,958.52
2022-09-17T11:37:59.108Z,958.54
2022-09-17T11:38:54.501Z,958.55
2022-09-17T11:39:54.524Z,958.58
2022-09-17T11:40:54.554Z,958.56
2022-09-17T11:41:54.446Z,958.58
2022-09-17T11:42:54.429Z,958.61
2022-09-17T11:43:54.437Z,958.64
2022-09-17T11:44:54.425Z,958.65
2022-09-17T11:45:54.461Z,958.66
2022-09-17T11:46:54.479Z,958.61
2022-09-17T11:48:00.492Z,958.60
2022-09-17T11:48:54.371Z,958.61
2022-09-17T11:49:54.383Z,958.61
2022-09-17T11:50:54.358Z,958.63
2022-09-17T11:51:54.400Z,958.62
2022-09-17T11:52:54.429Z,958.57
2022-09-17T11:53:54.302Z,958.61
2022-09-17T11:54:54.288Z,958.60
2022-09-17T11:55:54.284Z,958.62
2022-09-17T11:56:54.277Z,958.59
2022-09-17T11:57:54.326Z,958.58
2022-09-17T11:58:54.275Z,958.58
2022-09-17T11:59:54.260Z,958.59
2022-09-17T12:00:54.226Z,958.61
2022-09-17T12:01:54.319Z,958.61
2022-09-17T12:02:54.295Z,958.63
2022-09-17T12:03:54.201Z,958.63
2022-09-17T12:04:54.191Z,958.58
2022-09-17T12:05:54.170Z,958.53
2022-09-17T12:06:54.162Z,958.56
2022-09-17T12:07:54.155Z,958.56
2022-09-17T12:08:54.175Z,958.52
2022-09-17T12:09:54.109Z,958.53
2022-09-17T12:10:54.104Z,958.47
2022-09-17T12:11:54.108Z,958.46
2022-09-17T12:12:54.147Z,958.45
2022-09-17T12:13:54.155Z,958.47
2022-09-17T12:14:54.069Z,958.43
2022-09-17T12:15:54.145Z,958.31
2022-09-17T12:16:54.055Z,958.33
2022-09-17T12:18:08.633Z,958.40
2022-09-17T12:18:54.045Z,958.38
2022-09-17T12:19:54.031Z,958.38
2022-09-17T12:20:54.011Z,958.38
2022-09-17T12:21:54.672Z,958.40
2022-09-17T12:22:54.021Z,958.41
2022-09-17T12:23:53.959Z,958.43
2022-09-17T12:24:53.959Z,958.43
2022-09-17T12:25:53.991Z,958.46
2022-09-17T12:26:53.929Z,958.50
2022-09-17T12:27:53.926Z,958.51